Terminal Aerodrome Forecast
Issued by NWS

Home | Current Version | Previous Version | Text Only | Print | Product List | Glossary On
Versions: 1 2 3 4 5 6 7 8 9 10 11 12 13 14 15 16 17 18 19 20
000
FTUS43 KPAH 181700
TAFCGI
TAF
KCGI 181722Z 1818/1918 29003KT P6SM SCT015 BKN050
     FM190000 00000KT P6SM SCT035
     FM190600 00000KT 3SM BR SCT008
      TEMPO 1909/1913 1SM BR BKN005
     FM191400 23006KT P6SM BKN050=

USA.gov is the U.S. government's official web portal to all federal, state and local government web resources and services.